Time;durP1;ratioP1;P1;durP2;ratioP2;P2;SDS_P1;SDS_P2;PMS_P1;PMS_P2;Temp;Humidity;BMP_temperature;BMP_pressure;BME280_temperature;BME280_humidity;BME280_pressure;Samples;Min_cycle;Max_cycle;Signal;HPM_P1;HPM_P2
2021/07/20 00:00:23;;;;;;;7.90;7.13;;;;;;;28.28;42.33;101973.75;5071923;28;20139;-74
2021/07/20 00:02:51;;;;;;;9.07;6.97;;;;;;;28.20;42.37;101980.59;5072095;28;20033;-74
2021/07/20 00:05:21;;;;;;;9.30;8.52;;;;;;;28.20;42.07;101978.59;5072723;28;20182;-74
2021/07/20 00:07:51;;;;;;;9.98;8.00;;;;;;;28.12;42.39;101973.41;5075513;28;20030;-81
2021/07/20 00:10:28;;;;;;;8.32;7.03;;;;;;;28.12;42.26;101965.78;5074265;28;20028;-74
2021/07/20 00:12:55;;;;;;;9.13;7.40;;;;;;;27.99;42.88;101975.03;5075476;28;20100;-75
2021/07/20 00:15:21;;;;;;;11.10;6.63;;;;;;;28.02;42.79;101972.19;5074091;28;20119;-74
2021/07/20 00:17:48;;;;;;;10.65;5.43;;;;;;;28.01;42.76;101972.59;5075309;28;20107;-74
2021/07/20 00:20:17;;;;;;;6.78;5.80;;;;;;;28.12;43.06;101967.78;5075341;28;20028;-81
2021/07/20 00:22:43;;;;;;;8.27;7.55;;;;;;;28.05;42.92;101968.59;5074042;28;20050;-74
2021/07/20 00:25:10;;;;;;;5.82;5.32;;;;;;;28.11;42.90;101963.34;5075262;28;20441;-74
2021/07/20 00:27:36;;;;;;;7.10;6.40;;;;;;;28.16;42.92;101963.75;5075167;28;20036;-74
2021/07/20 00:30:04;;;;;;;6.75;6.15;;;;;;;28.18;42.73;101966.13;5075055;28;20386;-74
2021/07/20 00:32:30;;;;;;;9.68;8.70;;;;;;;28.15;42.82;101966.97;5075070;28;20025;-75
2021/07/20 00:34:55;;;;;;;6.38;5.88;;;;;;;27.95;43.12;101960.97;5075103;28;20024;-75
2021/07/20 00:37:21;;;;;;;6.78;6.28;;;;;;;27.96;43.02;101954.13;5074889;28;20097;-74
2021/07/20 00:39:46;;;;;;;5.55;5.03;;;;;;;27.85;42.95;101956.16;5074883;28;20031;-74
2021/07/20 00:42:13;;;;;;;6.13;5.30;;;;;;;27.72;42.97;101955.75;5074962;28;20123;-74
2021/07/20 00:44:39;;;;;;;4.70;4.30;;;;;;;27.77;42.58;101951.75;5074820;28;20032;-75
2021/07/20 00:47:04;;;;;;;4.88;4.47;;;;;;;27.72;42.67;101955.75;5074797;28;20099;-74
2021/07/20 00:49:30;;;;;;;7.05;6.45;;;;;;;27.77;42.26;101954.56;5074820;28;20470;-73
2021/07/20 00:51:55;;;;;;;6.25;5.65;;;;;;;27.76;42.12;101956.59;5074640;28;20021;-79
2021/07/20 00:54:21;;;;;;;6.95;6.43;;;;;;;27.78;41.94;101953.38;5074635;28;20034;-75
2021/07/20 00:56:47;;;;;;;7.78;7.28;;;;;;;27.75;41.86;101949.38;5074623;28;20475;-74
2021/07/20 00:59:13;;;;;;;7.38;6.75;;;;;;;27.75;41.68;101951.38;5074318;28;20048;-74
2021/07/20 01:01:39;;;;;;;5.95;5.55;;;;;;;27.75;41.59;101948.56;5074614;28;20028;-74
2021/07/20 01:04:05;;;;;;;5.20;4.80;;;;;;;27.68;41.84;101954.19;5074392;28;20025;-74
2021/07/20 01:06:32;;;;;;;6.88;4.90;;;;;;;27.58;41.87;101950.94;5074449;28;20028;-74
2021/07/20 01:09:00;;;;;;;5.72;5.07;;;;;;;27.51;41.82;101956.56;5074370;28;20027;-76
2021/07/20 01:11:28;;;;;;;6.38;5.88;;;;;;;27.50;41.67;101954.94;5074435;28;20070;-74
2021/07/20 01:13:55;;;;;;;7.00;6.40;;;;;;;27.48;41.65;101953.75;5074228;28;20028;-74
2021/07/20 01:16:23;;;;;;;4.97;4.30;;;;;;;27.46;41.67;101956.94;5074161;28;20024;-75
2021/07/20 01:18:50;;;;;;;6.82;4.78;;;;;;;27.49;41.67;101960.94;5074049;28;20028;-75
2021/07/20 01:21:15;;;;;;;7.10;4.43;;;;;;;27.47;41.54;101954.94;5074141;28;20028;-75
2021/07/20 01:23:47;;;;;;;6.45;5.20;;;;;;;27.37;41.62;101957.34;5074156;28;20105;-74
2021/07/20 01:26:13;;;;;;;7.60;5.38;;;;;;;27.37;41.53;101950.94;5074061;28;20382;-81
2021/07/20 01:28:40;;;;;;;6.70;4.50;;;;;;;27.22;42.03;101955.72;5073978;28;20029;-74
2021/07/20 01:31:13;;;;;;;6.57;5.60;;;;;;;27.20;42.13;101962.91;5073981;28;20074;-75
2021/07/20 01:33:46;;;;;;;4.93;4.25;;;;;;;27.06;42.48;101956.09;5074001;28;20036;-74
2021/07/20 01:36:15;;;;;;;6.75;5.05;;;;;;;27.03;42.31;101956.03;5073899;28;20032;-77
2021/07/20 01:38:42;;;;;;;5.88;5.28;;;;;;;26.87;42.51;101953.59;5073714;28;20032;-73
2021/07/20 01:41:13;;;;;;;5.85;5.18;;;;;;;26.84;42.71;101957.22;5073686;28;20115;-74
2021/07/20 01:43:43;;;;;;;7.43;6.72;;;;;;;26.95;42.22;101954.41;5072483;28;20390;-74
2021/07/20 01:46:09;;;;;;;8.77;7.97;;;;;;;26.99;41.84;101956.06;5073653;28;20040;-74
2021/07/20 01:48:38;;;;;;;6.97;6.47;;;;;;;26.99;41.80;101955.25;5073328;28;20024;-74
2021/07/20 01:51:05;;;;;;;6.57;5.95;;;;;;;26.93;42.04;101960.44;5072077;28;20017;-75
2021/07/20 01:53:32;;;;;;;7.03;6.43;;;;;;;26.92;41.95;101953.22;5073486;28;20138;-74
2021/07/20 01:56:04;;;;;;;6.22;5.72;;;;;;;26.90;41.95;101952.78;5073449;28;20033;-74
2021/07/20 01:58:30;;;;;;;5.80;5.30;;;;;;;26.79;42.36;101954.78;5071480;28;20145;-73
2021/07/20 02:00:58;;;;;;;6.70;6.00;;;;;;;26.65;42.18;101946.31;5073458;28;20371;-74
2021/07/20 02:08:55;;;;;;;7.97;5.78;;;;;;;26.82;41.57;101953.97;5073460;28;20093;-74
2021/07/20 02:11:30;;;;;;;5.78;4.65;;;;;;;26.91;41.33;101946.00;5073253;28;20028;-74
2021/07/20 02:14:01;;;;;;;5.05;4.35;;;;;;;26.88;41.40;101952.41;5073177;28;20027;-74
2021/07/20 02:16:29;;;;;;;5.75;4.00;;;;;;;26.84;41.31;101943.19;5073072;28;20089;-75
2021/07/20 02:19:07;;;;;;;4.22;3.10;;;;;;;26.65;41.58;101938.69;5072915;28;20033;-73
2021/07/20 02:21:38;;;;;;;4.03;3.05;;;;;;;26.74;41.36;101943.94;5073050;28;20024;-74
2021/07/20 02:24:05;;;;;;;7.32;3.78;;;;;;;26.63;41.68;101941.09;5072941;28;20023;-74
2021/07/20 02:26:31;;;;;;;5.35;4.32;;;;;;;26.78;41.26;101942.75;5072942;28;20526;-75
2021/07/20 02:28:57;;;;;;;7.03;3.28;;;;;;;26.57;41.49;101942.66;5072513;28;20059;-75
2021/07/20 02:31:24;;;;;;;6.70;3.40;;;;;;;26.47;41.96;101940.63;5072884;28;20111;-74
2021/07/20 02:33:50;;;;;;;13.60;4.22;;;;;;;26.47;42.31;101944.25;5068468;28;20028;-79
2021/07/20 02:36:16;;;;;;;18.63;3.78;;;;;;;26.48;42.09;101933.84;5052182;28;20059;-74
2021/07/20 02:38:43;;;;;;;11.10;3.47;;;;;;;26.47;41.90;101935.84;5052659;28;20115;-74
2021/07/20 02:41:11;;;;;;;25.23;5.35;;;;;;;26.41;42.06;101936.59;5052718;28;20467;-74
2021/07/20 02:43:39;;;;;;;26.83;5.28;;;;;;;26.40;42.19;101937.81;5068120;28;20033;-74
2021/07/20 02:46:08;;;;;;;23.55;5.07;;;;;;;26.44;41.87;101930.19;5052684;28;20387;-80
2021/07/20 02:48:38;;;;;;;58.63;8.02;;;;;;;26.49;41.66;101933.44;5052610;28;20025;-74
2021/07/20 02:51:05;;;;;;;51.13;8.00;;;;;;;26.82;40.45;101932.34;5052538;28;20040;-74
2021/07/20 02:53:31;;;;;;;39.50;5.90;;;;;;;27.02;39.67;101932.00;5052515;28;20387;-73
2021/07/20 02:55:59;;;;;;;33.45;5.82;;;;;;;27.07;39.86;101929.66;5051211;28;20029;-74
2021/07/20 02:58:26;;;;;;;29.30;5.38;;;;;;;26.66;41.11;101937.50;5052290;28;20057;-74
2021/07/20 03:00:54;;;;;;;55.17;7.10;;;;;;;26.49;41.69;101936.22;5052521;28;20112;-74
2021/07/20 03:03:20;;;;;;;57.00;8.45;;;;;;;26.40;41.74;101940.59;5051132;28;20045;-74
2021/07/20 03:05:47;;;;;;;30.75;5.75;;;;;;;26.38;41.84;101935.38;5052438;28;20040;-74
2021/07/20 03:08:15;;;;;;;21.10;3.60;;;;;;;26.33;42.22;101938.53;5052383;28;20094;-74
2021/07/20 03:10:42;;;;;;;16.33;4.95;;;;;;;26.37;42.16;101935.72;5052746;28;20033;-74
2021/07/20 03:13:12;;;;;;;35.58;5.65;;;;;;;26.33;42.16;101932.94;5052414;28;20116;-74
2021/07/20 03:15:38;;;;;;;31.42;5.97;;;;;;;26.75;41.60;101931.53;5051034;28;20025;-74
2021/07/20 03:18:07;;;;;;;12.70;3.30;;;;;;;26.55;42.22;101940.28;5050958;28;20037;-74
2021/07/20 03:20:36;;;;;;;11.30;2.87;;;;;;;26.53;42.13;101936.25;5067763;28;20029;-74
2021/07/20 03:23:04;;;;;;;8.27;2.67;;;;;;;26.18;43.08;101946.06;5052232;28;20108;-74
2021/07/20 03:25:30;;;;;;;5.85;2.45;;;;;;;26.41;42.53;101934.59;5052331;28;20079;-74
2021/07/20 03:27:58;;;;;;;6.45;3.25;;;;;;;26.00;43.37;101945.16;5052159;28;20056;-74
2021/07/20 03:30:27;;;;;;;9.95;2.53;;;;;;;25.86;43.89;101945.06;5052206;28;20431;-74
2021/07/20 03:32:54;;;;;;;9.05;2.83;;;;;;;25.95;43.63;101951.91;5052475;28;20056;-74
2021/07/20 03:35:21;;;;;;;8.82;3.42;;;;;;;25.98;43.62;101947.53;5050941;28;20032;-74
2021/07/20 03:37:47;;;;;;;9.98;2.83;;;;;;;26.02;43.49;101953.16;5050785;28;20025;-74
2021/07/20 03:40:13;;;;;;;8.23;3.13;;;;;;;25.96;43.86;101953.50;5052839;28;20035;-74
2021/07/20 03:42:40;;;;;;;13.45;3.72;;;;;;;25.96;43.87;101942.31;5056077;28;20430;-81
2021/07/20 03:45:08;;;;;;;17.88;3.72;;;;;;;26.02;43.16;101941.97;5055959;28;20566;-73
2021/07/20 03:47:36;;;;;;;13.32;3.65;;;;;;;25.98;43.45;101950.31;5055187;28;20040;-74
2021/07/20 03:50:06;;;;;;;10.77;3.42;;;;;;;26.00;43.39;101948.75;5054533;28;20483;-73
2021/07/20 03:52:34;;;;;;;12.88;3.90;;;;;;;25.95;43.31;101940.72;5054315;28;20131;-74
2021/07/20 03:55:00;;;;;;;9.38;3.05;;;;;;;25.90;43.53;101938.25;5055772;28;20079;-74
2021/07/20 03:57:27;;;;;;;9.20;3.42;;;;;;;25.84;43.52;101937.00;5055477;28;20059;-74
2021/07/20 03:59:58;;;;;;;10.70;2.85;;;;;;;25.84;43.47;101934.22;5055553;28;20037;-74
2021/07/20 04:02:27;;;;;;;6.72;3.17;;;;;;;26.00;42.89;101937.56;5055648;28;20101;-74
2021/07/20 04:04:53;;;;;;;9.35;2.80;;;;;;;26.07;42.60;101935.97;5054280;28;20107;-73
2021/07/20 04:07:20;;;;;;;4.53;2.60;;;;;;;26.03;42.22;101935.16;5055570;28;20025;-73
2021/07/20 04:09:48;;;;;;;12.10;3.33;;;;;;;26.05;42.28;101938.38;5055495;28;20029;-74
2021/07/20 04:12:15;;;;;;;8.73;3.05;;;;;;;25.93;42.66;101936.69;5055390;28;20070;-74
2021/07/20 04:14:44;;;;;;;8.43;2.83;;;;;;;25.78;42.81;101940.59;5055386;28;20070;-74
2021/07/20 04:17:11;;;;;;;10.13;3.78;;;;;;;25.65;42.99;101938.06;5054032;28;20036;-74
2021/07/20 04:19:37;;;;;;;5.65;3.28;;;;;;;25.63;43.17;101936.84;5054719;28;20471;-74
2021/07/20 04:22:04;;;;;;;12.48;3.92;;;;;;;25.42;43.42;101937.47;5054187;28;20029;-81
2021/07/20 04:24:30;;;;;;;22.77;3.65;;;;;;;25.25;43.79;101952.91;5053861;28;20040;-73
2021/07/20 04:26:57;;;;;;;17.60;3.70;;;;;;;25.29;44.16;101948.13;5053951;28;20083;-74
2021/07/20 04:29:23;;;;;;;16.85;3.55;;;;;;;25.33;44.06;101943.38;5055147;28;20029;-73
2021/07/20 04:31:53;;;;;;;9.75;3.58;;;;;;;25.33;43.87;101953.78;5055165;28;20040;-74
2021/07/20 04:34:20;;;;;;;5.82;2.83;;;;;;;25.29;43.97;101950.91;5055068;28;20029;-73
2021/07/20 04:36:46;;;;;;;10.70;4.32;;;;;;;25.26;43.38;101954.50;5055031;28;20502;-74
2021/07/20 04:39:13;;;;;;;10.05;3.33;;;;;;;25.23;43.59;101957.25;5054927;28;20033;-80
2021/07/20 04:41:39;;;;;;;10.43;3.30;;;;;;;25.42;43.21;101957.84;5054936;28;20031;-74
2021/07/20 04:44:06;;;;;;;15.20;3.70;;;;;;;25.48;43.34;101961.09;5054842;28;20032;-74
2021/07/20 04:46:32;;;;;;;16.88;5.20;;;;;;;25.46;43.52;101958.66;5053604;28;20704;-74
2021/07/20 04:48:58;;;;;;;31.38;4.97;;;;;;;25.38;43.93;101959.00;5053483;28;20025;-74
2021/07/20 04:51:25;;;;;;;14.00;3.40;;;;;;;25.60;43.77;101957.19;5053080;28;20390;-75
2021/07/20 04:53:51;;;;;;;50.42;7.95;;;;;;;25.61;43.94;101958.81;5054779;28;20033;-80
2021/07/20 04:56:17;;;;;;;38.85;6.68;;;;;;;25.75;43.92;101958.16;5054689;28;20029;-74
2021/07/20 04:58:42;;;;;;;27.17;4.95;;;;;;;25.89;43.92;101963.84;5053043;28;20094;-74
2021/07/20 05:01:09;;;;;;;26.02;4.95;;;;;;;26.02;43.71;101962.38;5054554;28;20044;-74
2021/07/20 05:03:38;;;;;;;15.68;4.47;;;;;;;26.17;43.72;101964.06;5054535;28;20029;-74
2021/07/20 05:06:06;;;;;;;14.23;4.40;;;;;;;26.22;43.63;101965.66;5054436;28;20029;-74
2021/07/20 05:08:33;;;;;;;15.32;3.72;;;;;;;26.14;44.02;101958.41;5054371;28;20037;-74
2021/07/20 05:11:00;;;;;;;24.45;5.68;;;;;;;26.12;45.05;101963.63;5054408;28;20100;-74
2021/07/20 05:13:26;;;;;;;20.60;4.15;;;;;;;26.22;45.54;101969.31;5054298;28;20033;-79
2021/07/20 05:15:53;;;;;;;23.80;4.15;;;;;;;26.49;45.67;101966.25;5052851;28;20590;-74
2021/07/20 05:18:21;;;;;;;17.70;4.40;;;;;;;26.42;46.42;101967.03;5054297;28;20098;-75
2021/07/20 05:20:49;;;;;;;11.88;3.00;;;;;;;26.59;46.55;101973.91;5054219;28;20033;-74
2021/07/20 05:23:17;;;;;;;13.57;2.80;;;;;;;26.73;46.07;101965.56;5054083;28;20056;-73
2021/07/20 05:25:47;;;;;;;24.20;4.30;;;;;;;26.70;46.68;101962.75;5054135;28;20036;-74
2021/07/20 05:28:14;;;;;;;6.97;2.65;;;;;;;26.83;46.56;101973.22;5053697;28;20467;-76
2021/07/20 05:30:43;;;;;;;10.20;2.28;;;;;;;26.81;47.16;101969.19;5054012;28;20028;-74
2021/07/20 05:33:09;;;;;;;9.88;2.60;;;;;;;26.88;47.03;101968.41;5053944;28;20025;-74
2021/07/20 05:35:35;;;;;;;5.78;2.33;;;;;;;26.72;47.50;101966.75;5053970;28;20111;-74
2021/07/20 05:38:02;;;;;;;6.15;1.92;;;;;;;26.74;47.72;101957.94;5052495;28;20466;-74
2021/07/20 05:40:28;;;;;;;5.15;2.30;;;;;;;26.83;47.58;101964.81;5053814;28;20082;-74
2021/07/20 05:42:58;;;;;;;6.75;2.90;;;;;;;26.55;48.80;101964.69;5052346;28;20021;-73
2021/07/20 05:45:26;;;;;;;17.58;3.22;;;;;;;26.69;48.88;101955.56;5053730;28;20086;-73
2021/07/20 05:47:53;;;;;;;10.10;2.50;;;;;;;27.03;47.87;101970.88;5053337;28;20455;-73
2021/07/20 05:50:20;;;;;;;6.88;1.95;;;;;;;27.38;46.89;101964.56;5053606;28;20108;-73
2021/07/20 05:52:48;;;;;;;4.53;1.83;;;;;;;27.80;45.83;101971.41;5053460;28;20029;-73
2021/07/20 05:55:15;;;;;;;11.60;2.53;;;;;;;27.67;46.20;101958.16;5052197;28;20025;-73
2021/07/20 05:57:48;;;;;;;62.88;8.02;;;;;;;27.73;46.22;101965.78;5053204;28;20049;-72
2021/07/20 06:00:19;;;;;;;6.00;1.83;;;;;;;27.83;46.35;101967.81;5052488;28;20063;-73
2021/07/20 06:02:46;;;;;;;9.70;1.90;;;;;;;28.26;45.54;101966.91;5051120;28;20021;-73
2021/07/20 06:05:16;;;;;;;8.23;2.45;;;;;;;28.10;46.50;101970.16;5052178;28;20484;-73
2021/07/20 06:07:43;;;;;;;;;;;;;;;28.16;46.31;101974.19;5051286;28;20055;-73
2021/07/20 06:10:09;;;;;;;3.85;1.83;;;;;;;28.19;46.27;101968.56;5052027;28;20355;-73
2021/07/20 06:12:36;;;;;;;5.53;1.77;;;;;;;28.26;46.43;101967.72;5051979;28;20021;-73
2021/07/20 06:15:04;;;;;;;4.82;1.70;;;;;;;28.28;45.96;101968.13;5051251;28;20467;-73
2021/07/20 06:17:30;;;;;;;4.72;1.98;;;;;;;28.36;45.90;101966.13;5052706;28;20025;-74
2021/07/20 06:19:55;;;;;;;6.38;2.00;;;;;;;28.81;44.67;101974.81;5067119;28;20032;-74
2021/07/20 06:22:23;;;;;;;3.42;1.30;;;;;;;28.26;45.94;101969.72;5069512;28;20123;-73
2021/07/20 06:24:51;;;;;;;3.50;1.63;;;;;;;28.59;45.03;101974.09;5061450;28;20096;-75
2021/07/20 06:27:18;;;;;;;7.20;2.00;;;;;;;28.65;44.88;101973.25;5068482;28;20024;-73
2021/07/20 06:29:45;;;;;;;7.13;1.80;;;;;;;28.80;44.36;101978.84;5087858;28;20067;-76
2021/07/20 06:32:13;;;;;;;7.65;1.70;;;;;;;28.70;44.81;101978.44;5056700;28;20733;-73
2021/07/20 06:34:40;;;;;;;4.32;1.50;;;;;;;28.85;44.23;101984.00;5052701;28;20037;-74
2021/07/20 06:37:07;;;;;;;2.65;1.42;;;;;;;29.30;43.06;101982.97;5055888;28;20124;-81
2021/07/20 06:39:33;;;;;;;5.80;1.67;;;;;;;29.13;43.38;101983.88;5063239;28;20043;-73
2021/07/20 06:42:00;;;;;;;2.58;1.38;;;;;;;28.78;44.25;101981.22;5064742;28;20097;-74
2021/07/20 06:44:28;;;;;;;8.73;3.03;;;;;;;29.11;43.15;101980.69;5072795;28;20032;-75
2021/07/20 06:46:55;;;;;;;6.15;1.33;;;;;;;29.11;43.08;101983.50;5072748;28;20029;-73
2021/07/20 06:49:21;;;;;;;2.08;1.25;;;;;;;28.85;44.03;101986.81;5071427;28;20021;-74
2021/07/20 06:51:47;;;;;;;7.25;1.80;;;;;;;28.89;43.74;101979.97;5072315;28;20032;-73
2021/07/20 06:54:13;;;;;;;2.95;1.30;;;;;;;29.01;43.55;101978.72;5071315;28;20073;-74
2021/07/20 06:56:59;;;;;;;3.05;1.35;;;;;;;29.20;42.66;101985.88;5069171;28;20025;-74
2021/07/20 06:59:25;;;;;;;4.57;1.40;;;;;;;29.12;42.93;101985.09;5070994;28;20040;-74
2021/07/20 07:01:52;;;;;;;3.13;1.38;;;;;;;29.02;42.74;101980.34;5072423;28;20036;-74
2021/07/20 07:04:27;;;;;;;4.35;1.13;;;;;;;28.96;43.07;101990.44;5072576;28;20066;-74
2021/07/20 07:06:56;;;;;;;6.35;1.65;;;;;;;29.05;42.49;101992.78;5072549;28;20021;-74
2021/07/20 07:09:30;;;;;;;5.72;1.98;;;;;;;29.07;42.37;101987.53;5072437;28;20025;-74
2021/07/20 07:11:58;;;;;;;1.20;0.90;;;;;;;29.14;42.11;101999.56;5072400;28;20124;-73
2021/07/20 07:14:24;;;;;;;5.80;1.70;;;;;;;29.23;41.92;101991.47;5073481;28;20083;-75
2021/07/20 07:16:52;;;;;;;2.90;1.70;;;;;;;29.17;42.16;101995.94;5075266;28;20079;-74
2021/07/20 07:19:20;;;;;;;9.02;1.35;;;;;;;29.23;41.88;101996.28;5076378;28;20031;-74
2021/07/20 07:21:47;;;;;;;3.90;1.58;;;;;;;29.32;41.96;101999.44;5068559;28;20028;-74
2021/07/20 07:24:17;;;;;;;5.45;1.08;;;;;;;29.60;40.95;101992.03;5058214;28;20490;-74
2021/07/20 07:26:46;;;;;;;5.10;1.80;;;;;;;29.35;41.48;101997.84;5065561;28;20564;-74
2021/07/20 07:29:15;;;;;;;4.75;1.50;;;;;;;29.53;41.43;101995.72;5076245;28;20028;-74
2021/07/20 07:31:43;;;;;;;3.38;1.33;;;;;;;29.57;41.04;101993.69;5074630;28;20028;-74
2021/07/20 07:34:10;;;;;;;2.83;1.10;;;;;;;29.54;41.37;101995.28;5076132;28;20025;-74
2021/07/20 07:36:37;;;;;;;6.43;1.40;;;;;;;29.53;41.26;101992.91;5076172;28;20024;-74
2021/07/20 07:39:05;;;;;;;5.93;1.52;;;;;;;29.47;41.47;101988.88;5076116;28;20020;-75
2021/07/20 07:41:37;;;;;;;2.55;1.30;;;;;;;29.48;41.22;101996.13;5074827;28;20025;-74
2021/07/20 07:44:04;;;;;;;3.85;1.35;;;;;;;29.60;41.12;102006.91;5076076;28;20031;-73
2021/07/20 07:46:32;;;;;;;2.78;1.52;;;;;;;29.57;41.50;102002.13;5076004;28;20029;-74
2021/07/20 07:48:59;;;;;;;2.42;1.60;;;;;;;29.53;41.72;101999.31;5070312;28;20101;-74
2021/07/20 07:51:25;;;;;;;9.20;2.20;;;;;;;29.53;41.27;102004.97;5060243;28;20021;-73
2021/07/20 07:53:53;;;;;;;4.25;1.42;;;;;;;29.56;40.88;102000.53;5059432;28;20024;-70
2021/07/20 07:56:19;;;;;;;6.13;1.55;;;;;;;29.50;41.21;102011.44;5060517;28;20117;-70
2021/07/20 07:58:46;;;;;;;5.30;1.17;;;;;;;29.70;40.55;102002.41;5075279;28;20049;-70
2021/07/20 08:01:12;;;;;;;2.60;1.40;;;;;;;29.89;39.93;102001.06;5073136;28;20028;-70
2021/07/20 08:03:43;;;;;;;3.22;1.27;;;;;;;29.78;40.04;102001.97;5057176;28;20028;-70
2021/07/20 08:06:09;;;;;;;4.72;1.35;;;;;;;29.97;39.31;102005.41;5063792;28;20476;-70
2021/07/20 08:08:38;;;;;;;5.97;1.67;;;;;;;29.95;39.68;102008.66;5075588;28;20099;-69
2021/07/20 08:11:12;;;;;;;3.58;0.95;;;;;;;29.88;39.31;102005.09;5061653;28;20040;-70
2021/07/20 08:13:39;;;;;;;5.40;1.50;;;;;;;30.20;38.67;102010.44;5058161;28;20064;-70
2021/07/20 08:16:07;;;;;;;6.63;1.70;;;;;;;30.25;38.84;102010.81;5059210;28;20025;-71
2021/07/20 08:18:33;;;;;;;2.92;1.20;;;;;;;30.23;38.51;102010.44;5071077;28;20055;-70
2021/07/20 08:21:04;;;;;;;5.28;1.17;;;;;;;30.30;38.72;102013.16;5075564;28;20105;-72
2021/07/20 08:23:31;;;;;;;11.15;2.17;;;;;;;30.47;38.50;102019.03;5075276;28;20013;-73
2021/07/20 08:26:04;;;;;;;11.13;1.85;;;;;;;30.51;38.27;102016.97;5073151;28;20367;-77
2021/07/20 08:28:45;;;;;;;4.80;1.00;;;;;;;30.72;37.31;101999.81;5073883;28;20026;-80
2021/07/20 08:31:13;;;;;;;3.88;1.67;;;;;;;30.78;37.15;102002.97;5075093;28;20024;-73
2021/07/20 08:33:39;;;;;;;3.88;1.30;;;;;;;30.75;37.42;102006.63;5075069;28;20532;-72
2021/07/20 08:36:08;;;;;;;3.70;1.10;;;;;;;30.57;38.00;102015.28;5075298;28;20040;-73
2021/07/20 08:38:35;;;;;;;4.20;1.08;;;;;;;30.77;37.32;102010.66;5066929;28;20442;-72
2021/07/20 08:41:08;;;;;;;2.10;1.08;;;;;;;30.82;37.22;102000.88;5067136;28;20029;-72
2021/07/20 08:44:11;;;;;;;6.05;1.92;;;;;;;30.83;37.01;102008.13;5074909;28;20032;-76
2021/07/20 08:46:37;;;;;;;3.72;1.50;;;;;;;30.86;37.46;102013.75;5074905;28;20032;-74
2021/07/20 08:49:25;;;;;;;2.10;0.90;;;;;;;30.88;36.67;102013.31;5073551;28;20025;-72
2021/07/20 08:52:06;;;;;;;2.35;1.00;;;;;;;30.66;37.03;102005.13;5073543;28;20086;-71
2021/07/20 08:54:55;;;;;;;2.47;1.25;;;;;;;30.86;36.41;102012.94;5074500;28;20460;-71
2021/07/20 08:57:44;;;;;;;2.33;1.10;;;;;;;30.93;36.36;102015.69;5071546;28;20471;-70
2021/07/20 09:00:19;;;;;;;3.40;0.90;;;;;;;30.89;36.37;102012.09;5058100;28;20063;-71
2021/07/20 09:03:02;;;;;;;1.65;0.98;;;;;;;31.09;35.67;102012.22;5053295;28;20032;-71
2021/07/20 09:05:38;;;;;;;3.42;1.48;;;;;;;31.07;36.53;102009.03;5053233;28;20031;-77
2021/07/20 09:08:29;;;;;;;1.50;0.90;;;;;;;30.94;36.24;102006.78;5054550;28;20368;-71
2021/07/20 09:11:10;;;;;;;4.78;1.00;;;;;;;30.96;36.73;102008.38;5066898;28;20024;-72
2021/07/20 09:13:38;;;;;;;4.20;1.30;;;;;;;31.20;36.31;102005.19;5074419;28;20028;-71
2021/07/20 09:16:32;;;;;;;6.13;1.25;;;;;;;31.38;35.49;101996.50;5072974;28;20024;-72
2021/07/20 09:19:14;;;;;;;14.50;2.13;;;;;;;31.20;35.50;102007.22;5073832;28;20055;-76
2021/07/20 09:21:44;;;;;;;56.72;7.00;;;;;;;31.46;35.20;102005.66;5072912;28;20546;-76
2021/07/20 09:24:18;;;;;;;3.78;1.55;;;;;;;31.29;35.05;102015.22;5068422;28;20102;-72
2021/07/20 09:26:53;;;;;;;1.88;0.80;;;;;;;31.55;35.07;102011.56;5058021;28;20029;-73
2021/07/20 09:29:23;;;;;;;3.53;1.15;;;;;;;31.68;34.83;102006.91;5058274;28;20388;-72
2021/07/20 09:31:59;;;;;;;;;;;;;;;31.65;34.85;102004.94;5057566;28;20253;-72
2021/07/20 09:34:29;;;;;;;1.77;1.00;;;;;;;31.44;35.29;102008.94;5056172;28;20002;-73
2021/07/20 09:37:09;;;;;;;2.53;0.93;;;;;;;31.45;35.01;102006.91;5057274;28;20028;-72
2021/07/20 09:39:49;;;;;;;3.88;1.52;;;;;;;31.40;34.77;102011.00;5055146;28;20064;-72
2021/07/20 09:42:37;;;;;;;4.63;1.00;;;;;;;31.77;34.88;102003.56;5056983;28;20025;-72
2021/07/20 09:45:10;;;;;;;46.15;6.00;;;;;;;31.70;34.91;102003.66;5056636;28;20052;-72
2021/07/20 09:48:00;;;;;;;4.28;1.27;;;;;;;31.42;35.34;102000.06;5057171;28;20025;-72
2021/07/20 09:50:28;;;;;;;6.18;1.17;;;;;;;31.70;34.92;102004.47;5063601;28;20017;-78
2021/07/20 09:53:19;;;;;;;4.05;1.10;;;;;;;31.96;34.41;101996.38;5070975;28;20024;-72
2021/07/20 09:56:14;;;;;;;2.08;0.95;;;;;;;32.19;33.63;102002.00;5069722;28;20375;-77
2021/07/20 09:59:05;;;;;;;5.32;1.88;;;;;;;31.91;34.25;102003.34;5056326;28;20525;-73
2021/07/20 10:01:38;;;;;;;5.53;1.10;;;;;;;32.36;33.72;102007.78;5050566;28;20047;-74
2021/07/20 10:04:14;;;;;;;5.72;1.33;;;;;;;32.29;34.07;102001.00;5056570;28;20090;-72
2021/07/20 10:06:50;;;;;;;3.22;1.02;;;;;;;32.44;33.38;102003.59;5072696;28;20028;-72
2021/07/20 10:09:25;;;;;;;10.18;2.13;;;;;;;32.41;33.21;102001.63;5073121;28;20421;-74
2021/07/20 10:12:16;;;;;;;2.78;0.95;;;;;;;32.42;33.30;102004.03;5072852;28;20032;-74
2021/07/20 10:15:07;;;;;;;3.72;1.10;;;;;;;32.50;33.09;102005.47;5064593;28;20040;-75
2021/07/20 10:17:51;;;;;;;2.30;1.27;;;;;;;32.33;33.04;102012.28;5069395;28;20483;-75
2021/07/20 10:20:22;;;;;;;2.53;1.10;;;;;;;32.89;32.84;102003.88;5072846;28;20431;-74
2021/07/20 10:23:02;;;;;;;2.60;1.33;;;;;;;33.53;31.29;102010.91;5072684;28;20063;-75
2021/07/20 10:25:59;;;;;;;2.97;1.15;;;;;;;33.53;31.29;102008.09;5071500;28;20166;-76
2021/07/20 10:28:39;;;;;;;7.75;1.33;;;;;;;32.97;32.41;102015.84;5072417;28;20032;-72
2021/07/20 10:31:07;;;;;;;;;;;;;;;32.73;32.39;102012.31;5070125;28;20016;-72
2021/07/20 10:33:40;;;;;;;9.50;1.80;;;;;;;32.87;32.90;102014.03;5069662;28;20291;-72
2021/07/20 10:36:16;;;;;;;5.47;1.40;;;;;;;32.98;32.52;102006.13;5072323;28;20028;-72
2021/07/20 10:38:50;;;;;;;3.85;1.58;;;;;;;32.94;32.46;102014.69;5069185;28;20024;-70
2021/07/20 10:41:21;;;;;;;2.55;1.20;;;;;;;33.22;32.12;102001.91;5072405;28;20069;-71
2021/07/20 10:43:56;;;;;;;5.90;1.42;;;;;;;33.57;31.24;102005.97;5069807;28;20024;-71
2021/07/20 10:46:25;;;;;;;5.20;1.38;;;;;;;33.81;31.03;102014.28;5072258;28;20025;-72
2021/07/20 10:49:00;;;;;;;6.03;1.88;;;;;;;33.77;31.41;102022.06;5070996;28;20028;-73
2021/07/20 10:51:34;;;;;;;3.92;1.40;;;;;;;33.88;31.16;102019.78;5070071;28;20115;-73
2021/07/20 10:54:13;;;;;;;9.63;1.80;;;;;;;34.06;31.11;102013.66;5069676;28;20056;-73
2021/07/20 10:56:58;;;;;;;2.20;1.23;;;;;;;34.08;30.93;102017.63;5071249;28;20032;-74
2021/07/20 10:59:36;;;;;;;7.13;1.83;;;;;;;33.81;31.47;102011.44;5069677;28;20079;-77
2021/07/20 11:02:31;;;;;;;4.82;1.58;;;;;;;34.06;30.85;102011.63;5069864;28;20097;-74
2021/07/20 11:05:06;;;;;;;8.50;2.45;;;;;;;34.12;31.00;102014.72;5069867;28;20024;-73
2021/07/20 11:07:46;;;;;;;10.88;2.10;;;;;;;34.15;30.99;102016.66;5072130;28;20026;-74
2021/07/20 11:10:23;;;;;;;3.10;1.40;;;;;;;34.21;30.47;102010.00;5072219;28;20039;-75
2021/07/20 11:12:57;;;;;;;2.60;1.20;;;;;;;34.06;30.49;102019.34;5072046;28;20029;-74
2021/07/20 11:15:25;;;;;;;7.88;1.73;;;;;;;34.02;30.52;102019.44;5072081;28;20496;-75
2021/07/20 11:17:51;;;;;;;6.32;2.10;;;;;;;34.06;30.73;102014.44;5071646;28;20498;-73
2021/07/20 11:20:21;;;;;;;7.32;1.92;;;;;;;34.34;30.51;102017.75;5072040;28;20501;-78
2021/07/20 11:22:47;;;;;;;;;;;;;;;33.68;31.15;102017.81;5070733;28;20107;-75
2021/07/20 11:25:15;;;;;;;5.50;1.50;;;;;;;34.07;31.01;102009.56;5070408;28;20002;-73
2021/07/20 11:27:44;;;;;;;7.65;1.80;;;;;;;33.77;31.19;102017.19;5055819;28;20032;-71
2021/07/20 11:30:16;;;;;;;11.93;1.80;;;;;;;33.81;31.17;102015.09;5054831;28;20107;-71
2021/07/20 11:32:51;;;;;;;7.05;1.75;;;;;;;33.50;32.11;102014.66;5055752;28;20041;-70
2021/07/20 11:35:19;;;;;;;4.70;1.20;;;;;;;33.95;31.24;102016.78;5055398;28;20467;-69
2021/07/20 11:37:52;;;;;;;9.82;2.30;;;;;;;34.08;31.00;102016.84;5055711;28;20025;-69
2021/07/20 11:40:26;;;;;;;3.67;1.30;;;;;;;34.13;30.81;102016.31;5055682;28;20017;-68
2021/07/20 11:43:03;;;;;;;1.42;1.13;;;;;;;34.21;30.27;102021.34;5056534;28;20470;-78